sensor_id;sensor_type;location;lat;lon;timestamp;temperature;humidity
1468;DHT22;727;48.892;9.544;2023-09-19T00:02:04;16.50;99.90
1468;DHT22;727;48.892;9.544;2023-09-19T00:04:33;16.60;99.90
1468;DHT22;727;48.892;9.544;2023-09-19T00:07:01;16.60;99.90
1468;DHT22;727;48.892;9.544;2023-09-19T00:09:29;16.60;99.90
1468;DHT22;727;48.892;9.544;2023-09-19T00:11:59;16.60;99.90
1468;DHT22;727;48.892;9.544;2023-09-19T00:14:25;16.60;99.90
1468;DHT22;727;48.892;9.544;2023-09-19T00:16:52;16.60;99.90
1468;DHT22;727;48.892;9.544;2023-09-19T00:19:20;16.60;99.90
1468;DHT22;727;48.892;9.544;2023-09-19T00:21:46;16.50;99.90
1468;DHT22;727;48.892;9.544;2023-09-19T00:24:13;16.50;99.90
1468;DHT22;727;48.892;9.544;2023-09-19T00:26:43;16.50;99.90
1468;DHT22;727;48.892;9.544;2023-09-19T00:29:13;16.50;99.90
1468;DHT22;727;48.892;9.544;2023-09-19T00:31:43;16.50;99.90
1468;DHT22;727;48.892;9.544;2023-09-19T00:34:10;16.50;99.90
1468;DHT22;727;48.892;9.544;2023-09-19T00:36:39;16.50;99.90
1468;DHT22;727;48.892;9.544;2023-09-19T00:39:08;16.40;99.90
1468;DHT22;727;48.892;9.544;2023-09-19T00:41:37;16.40;99.90
1468;DHT22;727;48.892;9.544;2023-09-19T00:44:04;16.40;99.90
1468;DHT22;727;48.892;9.544;2023-09-19T00:46:33;16.40;99.90
1468;DHT22;727;48.892;9.544;2023-09-19T00:48:59;16.40;99.90
1468;DHT22;727;48.892;9.544;2023-09-19T00:51:26;16.30;99.90
1468;DHT22;727;48.892;9.544;2023-09-19T00:53:54;16.40;99.90
1468;DHT22;727;48.892;9.544;2023-09-19T00:56:21;16.30;99.90
1468;DHT22;727;48.892;9.544;2023-09-19T00:58:48;16.30;99.90
1468;DHT22;727;48.892;9.544;2023-09-19T01:01:16;16.30;99.90
1468;DHT22;727;48.892;9.544;2023-09-19T01:03:45;16.30;99.90
1468;DHT22;727;48.892;9.544;2023-09-19T01:06:11;16.30;99.90
1468;DHT22;727;48.892;9.544;2023-09-19T01:08:38;16.30;99.90
1468;DHT22;727;48.892;9.544;2023-09-19T01:11:11;16.30;99.90
1468;DHT22;727;48.892;9.544;2023-09-19T01:13:53;16.30;99.90
1468;DHT22;727;48.892;9.544;2023-09-19T01:16:32;16.30;99.90
1468;DHT22;727;48.892;9.544;2023-09-19T01:19:13;16.30;99.90
1468;DHT22;727;48.892;9.544;2023-09-19T01:21:55;16.30;99.90
1468;DHT22;727;48.892;9.544;2023-09-19T01:27:59;16.30;99.90
1468;DHT22;727;48.892;9.544;2023-09-19T01:30:36;16.30;99.90
1468;DHT22;727;48.892;9.544;2023-09-19T01:33:06;16.30;99.90
1468;DHT22;727;48.892;9.544;2023-09-19T01:35:33;16.30;99.90
1468;DHT22;727;48.892;9.544;2023-09-19T01:38:04;16.40;99.90
1468;DHT22;727;48.892;9.544;2023-09-19T01:40:32;16.30;99.90
1468;DHT22;727;48.892;9.544;2023-09-19T01:43:08;16.30;99.90
1468;DHT22;727;48.892;9.544;2023-09-19T01:45:44;16.30;99.90
1468;DHT22;727;48.892;9.544;2023-09-19T01:48:27;16.30;99.90
1468;DHT22;727;48.892;9.544;2023-09-19T01:51:00;16.30;99.90
1468;DHT22;727;48.892;9.544;2023-09-19T01:53:30;16.30;99.90
1468;DHT22;727;48.892;9.544;2023-09-19T01:56:00;16.30;99.90
1468;DHT22;727;48.892;9.544;2023-09-19T01:58:34;16.20;99.90
1468;DHT22;727;48.892;9.544;2023-09-19T02:01:04;16.30;99.90
1468;DHT22;727;48.892;9.544;2023-09-19T02:03:33;16.30;99.90
1468;DHT22;727;48.892;9.544;2023-09-19T02:06:02;16.20;99.90
1468;DHT22;727;48.892;9.544;2023-09-19T02:08:31;16.30;99.90
1468;DHT22;727;48.892;9.544;2023-09-19T02:10:59;16.30;99.90
1468;DHT22;727;48.892;9.544;2023-09-19T02:13:26;16.30;99.90
1468;DHT22;727;48.892;9.544;2023-09-19T02:15:53;16.30;99.90
1468;DHT22;727;48.892;9.544;2023-09-19T02:18:23;16.30;99.90
1468;DHT22;727;48.892;9.544;2023-09-19T02:20:49;16.30;99.90
1468;DHT22;727;48.892;9.544;2023-09-19T02:23:18;16.30;99.90
1468;DHT22;727;48.892;9.544;2023-09-19T02:25:52;16.30;99.90
1468;DHT22;727;48.892;9.544;2023-09-19T02:28:19;16.30;99.90
1468;DHT22;727;48.892;9.544;2023-09-19T02:30:47;16.30;99.90
1468;DHT22;727;48.892;9.544;2023-09-19T02:33:14;16.30;99.90
1468;DHT22;727;48.892;9.544;2023-09-19T02:35:44;16.30;99.90
1468;DHT22;727;48.892;9.544;2023-09-19T02:38:11;16.30;99.90
1468;DHT22;727;48.892;9.544;2023-09-19T02:40:38;16.30;99.90
1468;DHT22;727;48.892;9.544;2023-09-19T02:43:05;16.30;99.90
1468;DHT22;727;48.892;9.544;2023-09-19T02:45:33;16.20;99.90
1468;DHT22;727;48.892;9.544;2023-09-19T02:48:00;16.20;99.90
1468;DHT22;727;48.892;9.544;2023-09-19T02:50:29;16.10;99.90
1468;DHT22;727;48.892;9.544;2023-09-19T02:52:58;16.10;99.90
1468;DHT22;727;48.892;9.544;2023-09-19T02:55:25;16.00;99.90
1468;DHT22;727;48.892;9.544;2023-09-19T02:57:53;15.90;99.90
1468;DHT22;727;48.892;9.544;2023-09-19T03:00:21;15.80;99.90
1468;DHT22;727;48.892;9.544;2023-09-19T03:02:48;15.70;99.90
1468;DHT22;727;48.892;9.544;2023-09-19T03:05:16;15.70;99.90
1468;DHT22;727;48.892;9.544;2023-09-19T03:07:43;15.60;99.90
1468;DHT22;727;48.892;9.544;2023-09-19T03:10:13;15.60;99.90
1468;DHT22;727;48.892;9.544;2023-09-19T03:12:40;15.50;99.90
1468;DHT22;727;48.892;9.544;2023-09-19T03:15:08;15.50;99.90
1468;DHT22;727;48.892;9.544;2023-09-19T03:17:35;15.40;99.90
1468;DHT22;727;48.892;9.544;2023-09-19T03:20:03;15.30;99.90
1468;DHT22;727;48.892;9.544;2023-09-19T03:22:34;15.30;99.90
1468;DHT22;727;48.892;9.544;2023-09-19T03:25:01;15.30;99.90
1468;DHT22;727;48.892;9.544;2023-09-19T03:27:30;15.30;99.90
1468;DHT22;727;48.892;9.544;2023-09-19T03:29:57;15.30;99.90
1468;DHT22;727;48.892;9.544;2023-09-19T03:32:24;15.40;99.90
1468;DHT22;727;48.892;9.544;2023-09-19T03:34:51;15.40;99.90
1468;DHT22;727;48.892;9.544;2023-09-19T03:37:20;15.50;99.90
1468;DHT22;727;48.892;9.544;2023-09-19T03:39:47;15.50;99.90
1468;DHT22;727;48.892;9.544;2023-09-19T03:42:14;15.60;99.90
1468;DHT22;727;48.892;9.544;2023-09-19T03:44:42;15.60;99.90
1468;DHT22;727;48.892;9.544;2023-09-19T03:47:09;15.60;99.90
1468;DHT22;727;48.892;9.544;2023-09-19T03:49:36;15.60;99.90
1468;DHT22;727;48.892;9.544;2023-09-19T03:52:03;15.60;99.90
1468;DHT22;727;48.892;9.544;2023-09-19T03:54:31;15.60;99.90
1468;DHT22;727;48.892;9.544;2023-09-19T03:56:58;15.70;99.90
1468;DHT22;727;48.892;9.544;2023-09-19T03:59:25;15.70;99.90
1468;DHT22;727;48.892;9.544;2023-09-19T04:01:57;15.60;99.90
1468;DHT22;727;48.892;9.544;2023-09-19T04:04:23;15.70;99.90
1468;DHT22;727;48.892;9.544;2023-09-19T04:06:51;15.70;99.90
1468;DHT22;727;48.892;9.544;2023-09-19T04:09:17;15.70;99.90
1468;DHT22;727;48.892;9.544;2023-09-19T04:11:44;15.70;99.90
1468;DHT22;727;48.892;9.544;2023-09-19T04:14:15;15.70;99.90
1468;DHT22;727;48.892;9.544;2023-09-19T04:16:42;15.70;99.90
1468;DHT22;727;48.892;9.544;2023-09-19T04:19:10;15.70;99.90
1468;DHT22;727;48.892;9.544;2023-09-19T04:21:38;15.80;99.90
1468;DHT22;727;48.892;9.544;2023-09-19T04:24:07;15.80;99.90
1468;DHT22;727;48.892;9.544;2023-09-19T04:26:34;15.80;99.90
1468;DHT22;727;48.892;9.544;2023-09-19T04:29:00;15.80;99.90
1468;DHT22;727;48.892;9.544;2023-09-19T04:31:29;15.90;99.90
1468;DHT22;727;48.892;9.544;2023-09-19T04:33:57;15.90;99.90
1468;DHT22;727;48.892;9.544;2023-09-19T04:36:26;15.90;99.90
1468;DHT22;727;48.892;9.544;2023-09-19T04:38:53;15.90;99.90
1468;DHT22;727;48.892;9.544;2023-09-19T04:41:19;15.90;99.90
1468;DHT22;727;48.892;9.544;2023-09-19T04:43:47;15.90;99.90
1468;DHT22;727;48.892;9.544;2023-09-19T04:46:16;16.00;99.90
1468;DHT22;727;48.892;9.544;2023-09-19T04:48:43;16.00;99.90
1468;DHT22;727;48.892;9.544;2023-09-19T04:51:12;16.00;99.90
1468;DHT22;727;48.892;9.544;2023-09-19T04:53:42;16.00;99.90
1468;DHT22;727;48.892;9.544;2023-09-19T04:56:10;16.10;99.90
1468;DHT22;727;48.892;9.544;2023-09-19T04:58:37;16.10;99.90
1468;DHT22;727;48.892;9.544;2023-09-19T05:01:04;16.10;99.90
1468;DHT22;727;48.892;9.544;2023-09-19T05:03:31;16.00;99.90
1468;DHT22;727;48.892;9.544;2023-09-19T05:05:57;16.00;99.90
1468;DHT22;727;48.892;9.544;2023-09-19T05:08:24;16.00;99.90
1468;DHT22;727;48.892;9.544;2023-09-19T05:10:54;16.10;99.90
1468;DHT22;727;48.892;9.544;2023-09-19T05:13:22;16.10;99.90
1468;DHT22;727;48.892;9.544;2023-09-19T05:15:53;16.10;99.90
1468;DHT22;727;48.892;9.544;2023-09-19T05:18:19;16.10;99.90
1468;DHT22;727;48.892;9.544;2023-09-19T05:20:47;16.00;99.90
1468;DHT22;727;48.892;9.544;2023-09-19T05:23:16;16.10;99.90
1468;DHT22;727;48.892;9.544;2023-09-19T05:25:46;16.10;99.90
1468;DHT22;727;48.892;9.544;2023-09-19T05:28:17;16.20;99.90
1468;DHT22;727;48.892;9.544;2023-09-19T05:30:43;16.20;99.90
1468;DHT22;727;48.892;9.544;2023-09-19T05:33:11;16.20;99.90
1468;DHT22;727;48.892;9.544;2023-09-19T05:35:38;16.20;99.90
1468;DHT22;727;48.892;9.544;2023-09-19T05:38:07;16.20;99.90
1468;DHT22;727;48.892;9.544;2023-09-19T05:40:35;16.20;99.90
1468;DHT22;727;48.892;9.544;2023-09-19T05:43:10;16.20;99.90
1468;DHT22;727;48.892;9.544;2023-09-19T05:45:40;16.20;99.90
1468;DHT22;727;48.892;9.544;2023-09-19T05:48:09;16.20;99.90
1468;DHT22;727;48.892;9.544;2023-09-19T05:50:37;16.20;99.90
1468;DHT22;727;48.892;9.544;2023-09-19T05:53:04;16.20;99.90
1468;DHT22;727;48.892;9.544;2023-09-19T05:55:31;16.20;99.90
1468;DHT22;727;48.892;9.544;2023-09-19T05:57:58;16.20;99.90
1468;DHT22;727;48.892;9.544;2023-09-19T06:00:25;16.30;99.90
1468;DHT22;727;48.892;9.544;2023-09-19T06:02:55;16.30;99.90
1468;DHT22;727;48.892;9.544;2023-09-19T06:05:23;16.30;99.90
1468;DHT22;727;48.892;9.544;2023-09-19T06:07:50;16.40;99.90
1468;DHT22;727;48.892;9.544;2023-09-19T06:10:17;16.40;99.90
1468;DHT22;727;48.892;9.544;2023-09-19T06:12:46;16.40;99.90
1468;DHT22;727;48.892;9.544;2023-09-19T06:15:14;16.40;99.90
1468;DHT22;727;48.892;9.544;2023-09-19T06:17:47;16.40;99.90
1468;DHT22;727;48.892;9.544;2023-09-19T06:20:17;16.30;99.90
1468;DHT22;727;48.892;9.544;2023-09-19T06:30:37;16.30;99.90
1468;DHT22;727;48.892;9.544;2023-09-19T06:38:40;16.30;99.90
1468;DHT22;727;48.892;9.544;2023-09-19T06:41:12;16.40;99.90
1468;DHT22;727;48.892;9.544;2023-09-19T06:43:43;16.40;99.90
1468;DHT22;727;48.892;9.544;2023-09-19T06:46:10;16.50;99.90
1468;DHT22;727;48.892;9.544;2023-09-19T06:48:38;16.40;99.90
1468;DHT22;727;48.892;9.544;2023-09-19T06:51:05;16.50;99.90
1468;DHT22;727;48.892;9.544;2023-09-19T06:53:32;16.50;99.90
1468;DHT22;727;48.892;9.544;2023-09-19T06:56:02;16.50;99.90
1468;DHT22;727;48.892;9.544;2023-09-19T06:58:29;16.60;99.90
1468;DHT22;727;48.892;9.544;2023-09-19T07:00:57;16.50;99.90
1468;DHT22;727;48.892;9.544;2023-09-19T07:03:24;16.50;99.90
1468;DHT22;727;48.892;9.544;2023-09-19T07:05:57;16.60;99.90
1468;DHT22;727;48.892;9.544;2023-09-19T07:08:25;16.70;99.90
1468;DHT22;727;48.892;9.544;2023-09-19T07:10:52;16.70;99.90
1468;DHT22;727;48.892;9.544;2023-09-19T07:13:22;16.80;99.90
1468;DHT22;727;48.892;9.544;2023-09-19T07:15:50;16.90;99.90
1468;DHT22;727;48.892;9.544;2023-09-19T07:18:22;17.10;99.90
1468;DHT22;727;48.892;9.544;2023-09-19T07:20:59;17.30;99.90
1468;DHT22;727;48.892;9.544;2023-09-19T07:23:31;17.60;99.90
1468;DHT22;727;48.892;9.544;2023-09-19T07:26:00;17.70;99.90
1468;DHT22;727;48.892;9.544;2023-09-19T07:28:28;18.00;99.90
1468;DHT22;727;48.892;9.544;2023-09-19T07:30:55;18.40;99.90
1468;DHT22;727;48.892;9.544;2023-09-19T07:33:23;18.90;99.90
1468;DHT22;727;48.892;9.544;2023-09-19T07:35:52;19.30;99.90
1468;DHT22;727;48.892;9.544;2023-09-19T07:38:18;19.70;99.90
1468;DHT22;727;48.892;9.544;2023-09-19T07:40:46;20.50;99.90
1468;DHT22;727;48.892;9.544;2023-09-19T07:43:12;21.10;99.90
1468;DHT22;727;48.892;9.544;2023-09-19T07:45:41;21.30;99.90
1468;DHT22;727;48.892;9.544;2023-09-19T07:48:09;21.30;99.90
1468;DHT22;727;48.892;9.544;2023-09-19T07:50:40;21.30;99.90
1468;DHT22;727;48.892;9.544;2023-09-19T07:53:09;21.10;99.90
1468;DHT22;727;48.892;9.544;2023-09-19T07:55:38;20.80;99.90
1468;DHT22;727;48.892;9.544;2023-09-19T07:58:06;20.70;99.90
1468;DHT22;727;48.892;9.544;2023-09-19T08:00:33;20.70;99.90
1468;DHT22;727;48.892;9.544;2023-09-19T08:03:02;20.70;99.90
1468;DHT22;727;48.892;9.544;2023-09-19T08:05:29;20.90;99.90
1468;DHT22;727;48.892;9.544;2023-09-19T08:07:56;21.30;99.90
1468;DHT22;727;48.892;9.544;2023-09-19T08:10:24;21.20;99.90
1468;DHT22;727;48.892;9.544;2023-09-19T08:12:54;21.10;99.90
1468;DHT22;727;48.892;9.544;2023-09-19T08:15:25;21.00;99.90
1468;DHT22;727;48.892;9.544;2023-09-19T08:17:55;20.90;99.90
1468;DHT22;727;48.892;9.544;2023-09-19T08:41:18;22.50;99.20
1468;DHT22;727;48.892;9.544;2023-09-19T08:43:45;22.60;98.50
1468;DHT22;727;48.892;9.544;2023-09-19T08:46:15;22.80;97.30
1468;DHT22;727;48.892;9.544;2023-09-19T08:48:54;22.80;97.30
1468;DHT22;727;48.892;9.544;2023-09-19T08:51:34;23.10;96.10
1468;DHT22;727;48.892;9.544;2023-09-19T08:54:24;23.10;95.90
1468;DHT22;727;48.892;9.544;2023-09-19T08:56:58;23.20;96.10
1468;DHT22;727;48.892;9.544;2023-09-19T08:59:29;23.20;96.10
1468;DHT22;727;48.892;9.544;2023-09-19T09:02:02;23.10;96.00
1468;DHT22;727;48.892;9.544;2023-09-19T09:10:10;22.60;95.20
1468;DHT22;727;48.892;9.544;2023-09-19T09:20:33;21.20;97.20
1468;DHT22;727;48.892;9.544;2023-09-19T09:23:02;21.10;98.80
1468;DHT22;727;48.892;9.544;2023-09-19T09:25:50;21.60;98.20
1468;DHT22;727;48.892;9.544;2023-09-19T09:28:24;22.30;97.30
1468;DHT22;727;48.892;9.544;2023-09-19T09:30:52;22.80;95.30
1468;DHT22;727;48.892;9.544;2023-09-19T09:33:20;23.10;95.40
1468;DHT22;727;48.892;9.544;2023-09-19T09:35:55;23.10;94.00
1468;DHT22;727;48.892;9.544;2023-09-19T09:41:07;22.80;95.00
1468;DHT22;727;48.892;9.544;2023-09-19T09:43:42;22.60;94.50
1468;DHT22;727;48.892;9.544;2023-09-19T09:48:58;22.00;95.20
1468;DHT22;727;48.892;9.544;2023-09-19T09:51:49;21.80;94.90
1468;DHT22;727;48.892;9.544;2023-09-19T09:54:28;21.50;96.60
1468;DHT22;727;48.892;9.544;2023-09-19T09:57:12;21.50;95.40
1468;DHT22;727;48.892;9.544;2023-09-19T09:59:51;21.40;95.50
1468;DHT22;727;48.892;9.544;2023-09-19T10:02:22;21.30;94.10
1468;DHT22;727;48.892;9.544;2023-09-19T10:04:54;21.40;94.50
1468;DHT22;727;48.892;9.544;2023-09-19T10:07:41;21.30;93.90
1468;DHT22;727;48.892;9.544;2023-09-19T10:10:15;21.60;93.40
1468;DHT22;727;48.892;9.544;2023-09-19T10:13:07;21.60;92.30
1468;DHT22;727;48.892;9.544;2023-09-19T10:15:38;21.80;92.80
1468;DHT22;727;48.892;9.544;2023-09-19T10:18:07;22.50;92.40
1468;DHT22;727;48.892;9.544;2023-09-19T10:20:36;23.40;90.50
1468;DHT22;727;48.892;9.544;2023-09-19T10:23:08;24.40;88.90
1468;DHT22;727;48.892;9.544;2023-09-19T10:25:43;24.80;84.60
1468;DHT22;727;48.892;9.544;2023-09-19T10:28:15;24.80;83.10
1468;DHT22;727;48.892;9.544;2023-09-19T10:30:50;25.00;82.30
1468;DHT22;727;48.892;9.544;2023-09-19T10:33:26;25.00;82.30
1468;DHT22;727;48.892;9.544;2023-09-19T10:35:59;24.60;81.80
1468;DHT22;727;48.892;9.544;2023-09-19T10:38:28;24.10;80.40
1468;DHT22;727;48.892;9.544;2023-09-19T10:40:56;23.70;82.60
1468;DHT22;727;48.892;9.544;2023-09-19T10:43:47;24.00;82.20
1468;DHT22;727;48.892;9.544;2023-09-19T10:46:15;24.60;81.30
1468;DHT22;727;48.892;9.544;2023-09-19T10:48:51;24.90;83.20
1468;DHT22;727;48.892;9.544;2023-09-19T10:51:23;24.70;78.40
1468;DHT22;727;48.892;9.544;2023-09-19T10:54:12;24.30;79.20
1468;DHT22;727;48.892;9.544;2023-09-19T10:56:55;24.20;81.50
1468;DHT22;727;48.892;9.544;2023-09-19T10:59:24;25.70;78.40
1468;DHT22;727;48.892;9.544;2023-09-19T11:02:20;26.90;72.40
1468;DHT22;727;48.892;9.544;2023-09-19T11:05:11;28.00;71.10
1468;DHT22;727;48.892;9.544;2023-09-19T11:08:01;28.90;64.30
1468;DHT22;727;48.892;9.544;2023-09-19T11:10:51;29.00;63.40
1468;DHT22;727;48.892;9.544;2023-09-19T11:13:30;29.10;62.40
1468;DHT22;727;48.892;9.544;2023-09-19T11:16:04;29.60;60.50
1468;DHT22;727;48.892;9.544;2023-09-19T11:18:53;30.60;59.60
1468;DHT22;727;48.892;9.544;2023-09-19T11:21:53;31.30;57.00
1468;DHT22;727;48.892;9.544;2023-09-19T11:24:31;30.90;56.50
1468;DHT22;727;48.892;9.544;2023-09-19T11:27:14;30.10;58.60
1468;DHT22;727;48.892;9.544;2023-09-19T11:36:02;30.00;56.20
1468;DHT22;727;48.892;9.544;2023-09-19T11:38:57;29.70;57.00
1468;DHT22;727;48.892;9.544;2023-09-19T11:44:46;31.40;54.90
1468;DHT22;727;48.892;9.544;2023-09-19T11:47:17;31.90;52.10
1468;DHT22;727;48.892;9.544;2023-09-19T11:49:52;31.70;52.30
1468;DHT22;727;48.892;9.544;2023-09-19T11:52:28;31.50;51.60
1468;DHT22;727;48.892;9.544;2023-09-19T11:55:14;30.60;52.30
1468;DHT22;727;48.892;9.544;2023-09-19T11:57:46;30.70;53.90
1468;DHT22;727;48.892;9.544;2023-09-19T12:00:19;31.20;52.00
1468;DHT22;727;48.892;9.544;2023-09-19T12:02:49;31.50;52.70
1468;DHT22;727;48.892;9.544;2023-09-19T12:05:28;31.50;51.30
1468;DHT22;727;48.892;9.544;2023-09-19T12:07:55;31.20;50.50
1468;DHT22;727;48.892;9.544;2023-09-19T12:10:22;30.90;53.00
1468;DHT22;727;48.892;9.544;2023-09-19T12:12:50;30.60;54.70
1468;DHT22;727;48.892;9.544;2023-09-19T12:15:24;31.00;54.40
1468;DHT22;727;48.892;9.544;2023-09-19T12:17:59;30.90;54.20
1468;DHT22;727;48.892;9.544;2023-09-19T12:23:26;30.90;55.70
1468;DHT22;727;48.892;9.544;2023-09-19T12:25:53;30.80;55.30
1468;DHT22;727;48.892;9.544;2023-09-19T12:28:24;30.40;55.10
1468;DHT22;727;48.892;9.544;2023-09-19T12:31:08;29.60;57.20
1468;DHT22;727;48.892;9.544;2023-09-19T12:33:37;29.40;57.40
1468;DHT22;727;48.892;9.544;2023-09-19T12:36:24;28.70;57.20
1468;DHT22;727;48.892;9.544;2023-09-19T12:38:56;27.70;59.50
1468;DHT22;727;48.892;9.544;2023-09-19T12:41:52;27.10;60.50
1468;DHT22;727;48.892;9.544;2023-09-19T12:44:20;27.40;60.20
1468;DHT22;727;48.892;9.544;2023-09-19T12:46:50;27.40;59.80
1468;DHT22;727;48.892;9.544;2023-09-19T12:49:20;26.70;62.70
1468;DHT22;727;48.892;9.544;2023-09-19T12:51:55;26.60;63.40
1468;DHT22;727;48.892;9.544;2023-09-19T12:54:24;27.20;63.60
1468;DHT22;727;48.892;9.544;2023-09-19T12:56:54;28.30;58.60
1468;DHT22;727;48.892;9.544;2023-09-19T12:59:29;29.10;56.30
1468;DHT22;727;48.892;9.544;2023-09-19T13:02:03;29.70;55.20
1468;DHT22;727;48.892;9.544;2023-09-19T13:04:32;30.20;54.00
1468;DHT22;727;48.892;9.544;2023-09-19T13:07:05;29.40;52.90
1468;DHT22;727;48.892;9.544;2023-09-19T13:09:33;27.80;55.60
1468;DHT22;727;48.892;9.544;2023-09-19T13:15:51;28.00;55.80
1468;DHT22;727;48.892;9.544;2023-09-19T13:21:38;29.10;55.80
1468;DHT22;727;48.892;9.544;2023-09-19T13:24:25;28.90;55.00
1468;DHT22;727;48.892;9.544;2023-09-19T13:26:56;28.70;56.20
1468;DHT22;727;48.892;9.544;2023-09-19T13:29:31;28.20;56.70
1468;DHT22;727;48.892;9.544;2023-09-19T13:34:33;27.50;57.90
1468;DHT22;727;48.892;9.544;2023-09-19T13:37:01;26.90;59.80
1468;DHT22;727;48.892;9.544;2023-09-19T13:39:28;26.50;58.20
1468;DHT22;727;48.892;9.544;2023-09-19T13:41:55;25.90;58.40
1468;DHT22;727;48.892;9.544;2023-09-19T13:44:24;25.60;60.80
1468;DHT22;727;48.892;9.544;2023-09-19T13:46:53;25.50;61.10
1468;DHT22;727;48.892;9.544;2023-09-19T13:49:22;25.40;63.30
1468;DHT22;727;48.892;9.544;2023-09-19T13:51:49;25.50;64.50
1468;DHT22;727;48.892;9.544;2023-09-19T13:56:51;25.80;62.70
1468;DHT22;727;48.892;9.544;2023-09-19T14:02:00;26.00;61.80
1468;DHT22;727;48.892;9.544;2023-09-19T14:04:45;26.00;61.60
1468;DHT22;727;48.892;9.544;2023-09-19T14:07:12;25.90;61.70
1468;DHT22;727;48.892;9.544;2023-09-19T14:09:41;25.80;63.30
1468;DHT22;727;48.892;9.544;2023-09-19T14:12:08;25.50;61.10
1468;DHT22;727;48.892;9.544;2023-09-19T14:14:35;25.40;61.50
1468;DHT22;727;48.892;9.544;2023-09-19T14:17:04;25.20;62.70
1468;DHT22;727;48.892;9.544;2023-09-19T14:19:32;25.30;64.50
1468;DHT22;727;48.892;9.544;2023-09-19T14:22:00;25.40;64.60
1468;DHT22;727;48.892;9.544;2023-09-19T14:24:33;25.10;64.90
1468;DHT22;727;48.892;9.544;2023-09-19T14:26:59;24.90;67.90
1468;DHT22;727;48.892;9.544;2023-09-19T14:29:26;24.60;67.20
1468;DHT22;727;48.892;9.544;2023-09-19T14:31:53;24.40;67.00
1468;DHT22;727;48.892;9.544;2023-09-19T14:34:24;24.30;68.30
1468;DHT22;727;48.892;9.544;2023-09-19T14:36:51;24.20;68.40
1468;DHT22;727;48.892;9.544;2023-09-19T14:39:20;24.10;67.40
1468;DHT22;727;48.892;9.544;2023-09-19T14:41:46;24.20;69.30
1468;DHT22;727;48.892;9.544;2023-09-19T14:44:13;24.40;67.20
1468;DHT22;727;48.892;9.544;2023-09-19T14:46:41;24.40;69.10
1468;DHT22;727;48.892;9.544;2023-09-19T14:49:09;24.40;69.60
1468;DHT22;727;48.892;9.544;2023-09-19T14:51:37;24.30;67.60
1468;DHT22;727;48.892;9.544;2023-09-19T14:54:06;24.00;67.90
1468;DHT22;727;48.892;9.544;2023-09-19T14:56:33;23.90;69.80
1468;DHT22;727;48.892;9.544;2023-09-19T14:59:00;23.90;70.80
1468;DHT22;727;48.892;9.544;2023-09-19T15:01:33;23.80;70.50
1468;DHT22;727;48.892;9.544;2023-09-19T15:04:00;23.70;71.80
1468;DHT22;727;48.892;9.544;2023-09-19T15:06:27;23.70;69.30
1468;DHT22;727;48.892;9.544;2023-09-19T15:08:55;23.80;69.40
1468;DHT22;727;48.892;9.544;2023-09-19T15:11:23;24.00;68.20
1468;DHT22;727;48.892;9.544;2023-09-19T15:13:52;24.00;67.40
1468;DHT22;727;48.892;9.544;2023-09-19T15:16:19;23.90;69.50
1468;DHT22;727;48.892;9.544;2023-09-19T15:18:46;23.80;69.40
1468;DHT22;727;48.892;9.544;2023-09-19T15:21:14;23.90;69.40
1468;DHT22;727;48.892;9.544;2023-09-19T15:23:42;23.90;69.30
1468;DHT22;727;48.892;9.544;2023-09-19T15:26:14;23.90;68.20
1468;DHT22;727;48.892;9.544;2023-09-19T15:28:45;23.80;69.00
1468;DHT22;727;48.892;9.544;2023-09-19T15:31:13;23.80;70.40
1468;DHT22;727;48.892;9.544;2023-09-19T15:33:41;23.80;71.30
1468;DHT22;727;48.892;9.544;2023-09-19T15:36:10;23.80;70.70
1468;DHT22;727;48.892;9.544;2023-09-19T15:38:59;23.70;70.60
1468;DHT22;727;48.892;9.544;2023-09-19T15:41:30;23.70;71.00
1468;DHT22;727;48.892;9.544;2023-09-19T15:43:57;23.60;70.60
1468;DHT22;727;48.892;9.544;2023-09-19T15:46:34;23.40;70.20
1468;DHT22;727;48.892;9.544;2023-09-19T15:52:29;23.40;71.40
1468;DHT22;727;48.892;9.544;2023-09-19T15:55:34;23.30;70.70
1468;DHT22;727;48.892;9.544;2023-09-19T15:58:23;23.10;70.10
1468;DHT22;727;48.892;9.544;2023-09-19T16:00:50;23.00;70.30
1468;DHT22;727;48.892;9.544;2023-09-19T16:03:18;22.80;70.50
1468;DHT22;727;48.892;9.544;2023-09-19T16:05:46;22.70;73.60
1468;DHT22;727;48.892;9.544;2023-09-19T16:08:13;22.60;73.80
1468;DHT22;727;48.892;9.544;2023-09-19T16:10:40;22.50;76.50
1468;DHT22;727;48.892;9.544;2023-09-19T16:13:07;22.20;78.10
1468;DHT22;727;48.892;9.544;2023-09-19T16:15:41;22.10;80.70
1468;DHT22;727;48.892;9.544;2023-09-19T16:18:08;21.90;81.90
1468;DHT22;727;48.892;9.544;2023-09-19T16:20:37;21.70;83.10
1468;DHT22;727;48.892;9.544;2023-09-19T16:23:07;21.50;84.00
1468;DHT22;727;48.892;9.544;2023-09-19T16:25:34;21.30;85.30
1468;DHT22;727;48.892;9.544;2023-09-19T16:28:01;21.20;85.40
1468;DHT22;727;48.892;9.544;2023-09-19T16:30:31;21.00;85.80
1468;DHT22;727;48.892;9.544;2023-09-19T16:33:00;20.90;86.00
1468;DHT22;727;48.892;9.544;2023-09-19T16:35:27;20.70;87.50
1468;DHT22;727;48.892;9.544;2023-09-19T16:38:21;20.50;87.60
1468;DHT22;727;48.892;9.544;2023-09-19T16:40:51;20.30;88.20
1468;DHT22;727;48.892;9.544;2023-09-19T16:43:18;20.20;88.00
1468;DHT22;727;48.892;9.544;2023-09-19T16:45:52;20.10;88.70
1468;DHT22;727;48.892;9.544;2023-09-19T16:48:20;20.00;88.90
1468;DHT22;727;48.892;9.544;2023-09-19T16:50:48;19.90;90.00
1468;DHT22;727;48.892;9.544;2023-09-19T16:53:18;19.80;90.20
1468;DHT22;727;48.892;9.544;2023-09-19T16:55:46;19.60;91.20
1468;DHT22;727;48.892;9.544;2023-09-19T16:58:13;19.40;92.10
1468;DHT22;727;48.892;9.544;2023-09-19T17:00:40;19.30;92.20
1468;DHT22;727;48.892;9.544;2023-09-19T17:03:09;19.10;92.90
1468;DHT22;727;48.892;9.544;2023-09-19T17:05:38;19.00;93.80
1468;DHT22;727;48.892;9.544;2023-09-19T17:08:05;18.80;94.70
1468;DHT22;727;48.892;9.544;2023-09-19T17:10:33;18.60;95.30
1468;DHT22;727;48.892;9.544;2023-09-19T17:13:00;18.50;95.70
1468;DHT22;727;48.892;9.544;2023-09-19T17:15:31;18.30;97.00
1468;DHT22;727;48.892;9.544;2023-09-19T17:17:58;18.20;98.00
1468;DHT22;727;48.892;9.544;2023-09-19T17:20:27;18.00;99.40
1468;DHT22;727;48.892;9.544;2023-09-19T17:22:55;17.80;99.90
1468;DHT22;727;48.892;9.544;2023-09-19T17:25:22;17.70;99.90
1468;DHT22;727;48.892;9.544;2023-09-19T17:27:50;17.60;99.90
1468;DHT22;727;48.892;9.544;2023-09-19T17:30:19;17.50;99.90
1468;DHT22;727;48.892;9.544;2023-09-19T17:32:47;17.40;99.90
1468;DHT22;727;48.892;9.544;2023-09-19T17:35:15;17.30;99.90
1468;DHT22;727;48.892;9.544;2023-09-19T17:37:43;17.20;99.90
1468;DHT22;727;48.892;9.544;2023-09-19T17:40:16;17.10;99.90
1468;DHT22;727;48.892;9.544;2023-09-19T17:42:44;17.00;99.90
1468;DHT22;727;48.892;9.544;2023-09-19T17:45:10;16.90;99.90
1468;DHT22;727;48.892;9.544;2023-09-19T17:47:40;16.80;99.90
1468;DHT22;727;48.892;9.544;2023-09-19T17:50:08;16.70;99.90
1468;DHT22;727;48.892;9.544;2023-09-19T17:52:39;16.70;99.90
1468;DHT22;727;48.892;9.544;2023-09-19T17:55:11;16.60;99.90
1468;DHT22;727;48.892;9.544;2023-09-19T17:57:41;16.50;99.90
1468;DHT22;727;48.892;9.544;2023-09-19T18:00:10;16.40;99.90
1468;DHT22;727;48.892;9.544;2023-09-19T18:02:37;16.30;99.90
1468;DHT22;727;48.892;9.544;2023-09-19T18:05:07;16.30;99.90
1468;DHT22;727;48.892;9.544;2023-09-19T18:07:46;16.20;99.90